createdAt,value
2023-05-11T00:00:22.268Z,9.4
2023-05-11T00:05:59.200Z,9.4
2023-05-11T00:11:35.433Z,9.4
2023-05-11T00:16:56.449Z,9.4
2023-05-11T00:22:33.116Z,9.3
2023-05-11T00:28:09.461Z,9.3
2023-05-11T00:33:32.004Z,9.3
2023-05-11T00:39:10.201Z,9.2
2023-05-11T00:44:47.163Z,9.1
2023-05-11T00:50:23.699Z,9.1
2023-05-11T00:55:59.394Z,9.1
2023-05-11T01:01:35.947Z,9
2023-05-11T01:07:12.828Z,9
2023-05-11T01:12:49.113Z,8.9
2023-05-11T01:18:41.478Z,8.9
2023-05-11T01:24:17.489Z,8.8
2023-05-11T01:29:53.245Z,8.8
2023-05-11T01:35:47.679Z,8.8
2023-05-11T01:41:38.774Z,8.8
2023-05-11T01:47:30.570Z,8.7
2023-05-11T01:53:06.783Z,8.6
2023-05-11T01:58:58.075Z,8.6
2023-05-11T02:04:50.416Z,8.6
2023-05-11T02:10:42.086Z,8.6
2023-05-11T02:16:33.878Z,8.5
2023-05-11T02:22:26.096Z,8.5
2023-05-11T02:28:17.445Z,8.4
2023-05-11T02:33:54.192Z,8.4
2023-05-11T02:39:46.166Z,8.4
2023-05-11T02:45:38.036Z,8.4
2023-05-11T02:51:30.735Z,8.3
2023-05-11T02:57:22.468Z,8.3
2023-05-11T03:03:16.774Z,8.3
2023-05-11T03:09:10.103Z,8.2
2023-05-11T03:15:01.821Z,8.2
2023-05-11T03:20:54.415Z,8.1
2023-05-11T03:26:45.865Z,8.1
2023-05-11T03:32:40.919Z,8.1
2023-05-11T03:38:32.303Z,8.1
2023-05-11T03:44:25.580Z,8.2
2023-05-11T03:50:17.956Z,8.2
2023-05-11T03:56:09.561Z,8.2
2023-05-11T04:02:01.395Z,8.3
2023-05-11T04:07:54.605Z,8.4
2023-05-11T04:13:45.859Z,8.4
2023-05-11T04:19:38.095Z,8.5
2023-05-11T04:25:29.755Z,8.6
2023-05-11T04:31:21.327Z,8.7
2023-05-11T04:37:12.518Z,8.8
2023-05-11T04:43:04.703Z,9
2023-05-11T04:48:56.188Z,9.2
2023-05-11T04:54:33.134Z,9.3
2023-05-11T05:00:09.005Z,9.5
2023-05-11T05:05:47.863Z,9.8
2023-05-11T05:11:23.738Z,10
2023-05-11T05:17:14.734Z,10.4
2023-05-11T05:23:06.673Z,10.9
2023-05-11T05:28:58.095Z,11.8
2023-05-11T05:34:34.754Z,12.6
2023-05-11T05:40:11.296Z,13.4
2023-05-11T05:46:05.116Z,14.4
2023-05-11T05:51:56.608Z,15.3
2023-05-11T05:57:49.779Z,15.9
2023-05-11T06:03:45.095Z,16.4
2023-05-11T06:09:55.619Z,16.6
2023-05-11T06:15:31.895Z,16.7
2023-05-11T06:21:23.940Z,16.7
2023-05-11T06:27:16.658Z,16.9
2023-05-11T06:38:16.289Z,17.2
2023-05-11T06:44:08.146Z,17.4
2023-05-11T06:50:01.265Z,17.9
2023-05-11T06:55:56.093Z,18.2
2023-05-11T07:01:47.877Z,18.8
2023-05-11T07:07:39.948Z,19.8
2023-05-11T07:13:32.401Z,21.3
2023-05-11T07:19:09.895Z,23.6
2023-05-11T07:24:30.322Z,26
2023-05-11T07:30:07.237Z,28.3
2023-05-11T07:35:44.741Z,30.1
2023-05-11T07:41:39.572Z,32.5
2023-05-11T07:47:33.238Z,33.8
2023-05-11T07:53:42.228Z,34.6
2023-05-11T07:59:34.587Z,34.4
2023-05-11T08:05:27.544Z,34.3
2023-05-11T08:11:06.838Z,35.2
2023-05-11T08:16:59.042Z,37.8
2023-05-11T08:22:51.781Z,40.5
2023-05-11T08:28:30.716Z,43.6
2023-05-11T08:34:20.389Z,45.1
2023-05-11T08:40:14.572Z,45.8
2023-05-11T08:46:06.584Z,45.3
2023-05-11T08:52:17.266Z,44.8
2023-05-11T08:58:09.837Z,43.6
2023-05-11T09:04:02.221Z,42.7
2023-05-11T09:09:39.178Z,41.8
2023-05-11T09:15:39.316Z,41.8
2023-05-11T09:21:33.120Z,42.1
2023-05-11T09:27:09.328Z,43
2023-05-11T09:33:01.529Z,43.9
2023-05-11T09:38:41.215Z,45.1
2023-05-11T09:45:01.255Z,48
2023-05-11T09:51:00.498Z,52.9
2023-05-11T09:56:36.713Z,54.3
2023-05-11T10:02:12.565Z,44.2
2023-05-11T10:08:06.008Z,43.6
2023-05-11T10:14:01.372Z,46.4
2023-05-11T10:19:38.779Z,49.6
2023-05-11T10:25:32.477Z,50.8
2023-05-11T10:31:24.552Z,51.5
2023-05-11T10:37:16.179Z,57.7
2023-05-11T10:43:08.391Z,48.9
2023-05-11T10:49:03.719Z,42.9
2023-05-11T10:54:55.936Z,50.8
2023-05-11T11:00:50.238Z,58
2023-05-11T11:06:42.580Z,51.7
2023-05-11T11:12:34.744Z,48.1
2023-05-11T11:18:27.503Z,47.4
2023-05-11T11:24:18.546Z,60.3
2023-05-11T11:30:09.674Z,52.7
2023-05-11T11:36:01.597Z,46.1
2023-05-11T11:42:14.840Z,47
2023-05-11T11:48:08.106Z,48.5
2023-05-11T11:54:00.667Z,50.4
2023-05-11T11:59:51.994Z,51.8
2023-05-11T12:05:47.142Z,51.1
2023-05-11T12:11:39.400Z,49.8
2023-05-11T12:17:30.652Z,48.3
2023-05-11T12:23:22.358Z,46.6
2023-05-11T12:29:14.342Z,44.9
2023-05-11T12:35:06.242Z,43.6
2023-05-11T12:40:57.234Z,42.6
2023-05-11T12:46:48.958Z,41.8
2023-05-11T12:52:40.557Z,41.1
2023-05-11T12:58:31.859Z,39.9
2023-05-11T13:04:09.143Z,38.6
2023-05-11T13:10:00.521Z,37.3
2023-05-11T13:15:54.759Z,36.4
2023-05-11T13:21:47.425Z,35.6
2023-05-11T13:27:40.634Z,34.7
2023-05-11T13:33:29.057Z,33.9
2023-05-11T13:39:20.573Z,33
2023-05-11T13:45:12.114Z,32.2
2023-05-11T13:51:07.384Z,31.4
2023-05-11T13:56:59.263Z,30.4
2023-05-11T14:03:08.664Z,29.5
2023-05-11T14:09:15.499Z,28.8
2023-05-11T14:15:08.075Z,28
2023-05-11T14:21:02.177Z,27.6
2023-05-11T14:27:01.940Z,27.1
2023-05-11T14:32:57.232Z,26.6
2023-05-11T14:38:50.147Z,26.1
2023-05-11T14:44:42.371Z,25.5
2023-05-11T14:50:34.531Z,24.8
2023-05-11T14:56:26.949Z,24
2023-05-11T15:02:33.883Z,23.2
2023-05-11T15:08:42.199Z,22.4
2023-05-11T15:14:34.455Z,21.7
2023-05-11T15:20:27.846Z,20.9
2023-05-11T15:26:20.286Z,20.3
2023-05-11T15:32:14.920Z,19.6
2023-05-11T15:38:23.589Z,18.9
2023-05-11T15:44:17.348Z,18.4
2023-05-11T15:49:56.810Z,17.8
2023-05-11T15:55:49.403Z,17.4
2023-05-11T16:01:43.990Z,16.9
2023-05-11T16:07:38.903Z,16.4
2023-05-11T16:13:33.053Z,16.1
2023-05-11T16:19:30.294Z,15.7
2023-05-11T16:25:25.588Z,15.4
2023-05-11T16:31:34.967Z,15
2023-05-11T16:37:33.055Z,14.8
2023-05-11T16:43:27.083Z,14.5
2023-05-11T16:49:23.215Z,14.3
2023-05-11T16:55:23.553Z,14
2023-05-11T17:01:26.066Z,13.8
2023-05-11T17:07:26.825Z,13.6
2023-05-11T17:13:27.531Z,13.4
2023-05-11T17:19:28.344Z,13.2
2023-05-11T17:25:28.895Z,13
2023-05-11T17:32:10.307Z,12.8
2023-05-11T17:38:23.586Z,12.7
2023-05-11T17:44:24.994Z,12.5
2023-05-11T17:50:27.011Z,12.4
2023-05-11T17:56:27.398Z,12.3
2023-05-11T18:02:28.780Z,12.2
2023-05-11T18:08:44.263Z,12.1
2023-05-11T18:14:47.043Z,12
2023-05-11T18:20:33.623Z,11.9
2023-05-11T18:26:33.428Z,11.9
2023-05-11T18:32:34.510Z,11.8
2023-05-11T18:38:19.356Z,11.8
2023-05-11T18:44:20.747Z,11.7
2023-05-11T18:50:23.805Z,11.6
2023-05-11T18:56:40.164Z,11.6
2023-05-11T19:02:52.780Z,11.6
2023-05-11T19:08:53.958Z,11.6
2023-05-11T19:14:57.026Z,11.5
2023-05-11T19:20:59.616Z,11.5
2023-05-11T19:27:12.250Z,11.5
2023-05-11T19:33:13.105Z,11.4
2023-05-11T19:39:13.820Z,11.4
2023-05-11T19:46:06.823Z,11.4
2023-05-11T19:52:11.711Z,11.4
2023-05-11T19:58:11.928Z,11.3
2023-05-11T20:02:09.994Z,11.3
2023-05-11T20:08:12.632Z,11.3
2023-05-11T20:14:15.969Z,11.3
2023-05-11T20:20:17.502Z,11.3
2023-05-11T20:26:18.439Z,11.2
2023-05-11T20:32:21.082Z,11.2
2023-05-11T20:38:33.774Z,11.1
2023-05-11T20:44:32.638Z,11.1
2023-05-11T20:50:53.203Z,11.1
2023-05-11T20:56:53.947Z,11
2023-05-11T21:03:01.093Z,10.9
2023-05-11T21:09:00.877Z,10.9
2023-05-11T21:14:57.985Z,10.9
2023-05-11T21:20:56.530Z,10.8
2023-05-11T21:26:36.368Z,10.8
2023-05-11T21:32:14.729Z,10.7
2023-05-11T21:37:37.893Z,10.6
2023-05-11T21:43:14.936Z,10.6
2023-05-11T21:48:35.113Z,10.5
2023-05-11T21:54:11.149Z,10.4
2023-05-11T21:59:47.382Z,10.2
2023-05-11T22:05:25.376Z,10
2023-05-11T22:11:09.366Z,9.8
2023-05-11T22:16:45.351Z,9.6
2023-05-11T22:22:21.465Z,9.5
2023-05-11T22:27:57.570Z,9.3
2023-05-11T22:33:34.181Z,9.1
2023-05-11T22:38:54.555Z,8.9
2023-05-11T22:44:15.760Z,8.8
2023-05-11T22:49:37.031Z,8.6
2023-05-11T22:54:57.231Z,8.5
2023-05-11T23:00:03.111Z,8.4
2023-05-11T23:05:25.640Z,8.3
2023-05-11T23:11:01.110Z,8.2
2023-05-11T23:16:21.793Z,8.1
2023-05-11T23:21:43.564Z,7.9
2023-05-11T23:26:48.297Z,7.9
2023-05-11T23:32:09.764Z,7.8
2023-05-11T23:37:31.085Z,7.7
2023-05-11T23:42:52.027Z,7.6
2023-05-11T23:48:29.166Z,7.6
2023-05-11T23:53:49.885Z,7.4
2023-05-11T23:59:27.087Z,7.4
